Isabel L — WDF6141 — position and weather

sailwx.info

Track history (hours):
 
Tides and Currents Weather Stations Pressure Air Temp Water Temp Dewpoint Dewpoint Depression Visibility Wind Speed Wind Dir Waves Ship Positions

Isabel L

Owner: SO CAL SHIP SERVICES, TERMINAL ISLAND, CA. More information available from US FCC via Universal Licensing System and Coast Guard Vessel Documentation Center.

Last reported at 2018-Jan-19 03:20 UTC. Time now 2018-Jan-20 09:04 UTC.
Position N 33°43' W 118°07'.

Length 28 m; draft 2 m.

Type: Ship (hazmat cat B). MMSI: 367471080.

Date/timePositionNaut miles runAvg speedWind from/ knotsBaromVisibWave heightAir tempDewpointWater temp
2018-Jan-19 03:20N 33°43' W 118°07'515.8
2018-Jan-19 03:00N 33°38' W 118°08'6 8.1
2018-Jan-19 02:13N 33°44' W 118°06'2 9.1
2018-Jan-19 02:00N 33°42' W 118°06'1 1.1
2018-Jan-19 01:00N 33°43' W 118°07'714.1
2018-Jan-19 00:30N 33°36' W 118°08'7 4.3
2018-Jan-18 22:55N 33°43' W 118°07'1 2.3
2018-Jan-18 22:29N 33°44' W 118°06'8 9.1
2018-Jan-18 21:33N 33°36' W 118°08'0 0.0
2018-Jan-18 21:07N 33°36' W 118°08'0 1.0
2018-Jan-18 21:00N 33°36' W 118°09'611.3
2018-Jan-18 20:30N 33°40' W 118°04'6 3.6
2018-Jan-18 18:58N 33°36' W 118°08'812.9
2018-Jan-18 18:18N 33°44' W 118°06'1 3.4
2018-Jan-18 18:00N 33°43' W 118°07'0 0.3
2018-Jan-18 17:31N 33°43' W 118°07'5 2.3
2018-Jan-18 15:18N 33°38' W 118°08'9 1.3
2018-Jan-18 08:11N 33°44' W 118°16'0 0.0
2018-Jan-18 06:39N 33°44' W 118°16'0 0.0
2018-Jan-18 06:30N 33°44' W 118°16'0 0.0
2018-Jan-18 06:00N 33°44' W 118°16'0 0.0
2018-Jan-18 05:28N 33°44' W 118°16'0 0.0
2018-Jan-18 05:00N 33°44' W 118°16'0 0.0
2018-Jan-18 04:29N 33°44' W 118°16'1 1.5
2018-Jan-18 03:59N 33°43' W 118°16'812.3
2018-Jan-18 03:20N 33°44' W 118°07'515.4
2018-Jan-18 02:59N 33°39' W 118°08'5 5.5
2018-Jan-18 02:05N 33°44' W 118°07'211.7
2018-Jan-18 01:56N 33°42' W 118°06'2 1.5
2018-Jan-18 00:21N 33°44' W 118°06'4 9.9
2018-Jan-17 23:59N 33°41' W 118°05'113.4
2018-Jan-17 23:56N 33°40' W 118°04'  
2018-Jan-12 07:16N 33°40' W 118°08'415.5
2018-Jan-12 07:00N 33°37' W 118°08'1 1.5
2018-Jan-12 06:30N 33°36' W 118°08'0 0.1
2018-Jan-12 05:58N 33°36' W 118°09'0 0.0
2018-Jan-12 05:29N 33°36' W 118°09'911.9
2018-Jan-12 04:44N 33°43' W 118°15'7 2.8
2018-Jan-12 02:13N 33°44' W 118°07'512.6
2018-Jan-12 01:50N 33°40' W 118°04'4 3.0
2018-Jan-12 00:33N 33°42' W 118°07'113.9
2018-Jan-12 00:28N 33°41' W 118°07'  
Track history (hours):
 
Tides and Currents Weather Stations Pressure Air Temp Water Temp Dewpoint Dewpoint Depression Visibility Wind Speed Wind Dir Waves Ship Positions

Isabel L

Owner: SO CAL SHIP SERVICES, TERMINAL ISLAND, CA. More information available from US FCC via Universal Licensing System and Coast Guard Vessel Documentation Center.

Last reported at 2018-Jan-19 03:20 UTC. Time now 2018-Jan-20 09:04 UTC.
Position N 33°43' W 118°07'.

Length 28 m; draft 2 m.

Type: Ship (hazmat cat B). MMSI: 367471080.

Date/timePositionNaut miles runAvg speedWind from/ knotsBaromVisibWave heightAir tempDewpointWater temp
2018-Jan-19 03:20N 33°43' W 118°07'515.8
2018-Jan-19 03:00N 33°38' W 118°08'6 8.1
2018-Jan-19 02:13N 33°44' W 118°06'2 9.1
2018-Jan-19 02:00N 33°42' W 118°06'1 1.1
2018-Jan-19 01:00N 33°43' W 118°07'714.1
2018-Jan-19 00:30N 33°36' W 118°08'7 4.3
2018-Jan-18 22:55N 33°43' W 118°07'1 2.3
2018-Jan-18 22:29N 33°44' W 118°06'8 9.1
2018-Jan-18 21:33N 33°36' W 118°08'0 0.0
2018-Jan-18 21:07N 33°36' W 118°08'0 1.0
2018-Jan-18 21:00N 33°36' W 118°09'611.3
2018-Jan-18 20:30N 33°40' W 118°04'6 3.6
2018-Jan-18 18:58N 33°36' W 118°08'812.9
2018-Jan-18 18:18N 33°44' W 118°06'1 3.4
2018-Jan-18 18:00N 33°43' W 118°07'0 0.3
2018-Jan-18 17:31N 33°43' W 118°07'5 2.3
2018-Jan-18 15:18N 33°38' W 118°08'9 1.3
2018-Jan-18 08:11N 33°44' W 118°16'0 0.0
2018-Jan-18 06:39N 33°44' W 118°16'0 0.0
2018-Jan-18 06:30N 33°44' W 118°16'0 0.0
2018-Jan-18 06:00N 33°44' W 118°16'0 0.0
2018-Jan-18 05:28N 33°44' W 118°16'0 0.0
2018-Jan-18 05:00N 33°44' W 118°16'0 0.0
2018-Jan-18 04:29N 33°44' W 118°16'1 1.5
2018-Jan-18 03:59N 33°43' W 118°16'812.3
2018-Jan-18 03:20N 33°44' W 118°07'515.4
2018-Jan-18 02:59N 33°39' W 118°08'5 5.5
2018-Jan-18 02:05N 33°44' W 118°07'211.7
2018-Jan-18 01:56N 33°42' W 118°06'2 1.5
2018-Jan-18 00:21N 33°44' W 118°06'4 9.9
2018-Jan-17 23:59N 33°41' W 118°05'113.4
2018-Jan-17 23:56N 33°40' W 118°04'  
2018-Jan-12 07:16N 33°40' W 118°08'415.5
2018-Jan-12 07:00N 33°37' W 118°08'1 1.5
2018-Jan-12 06:30N 33°36' W 118°08'0 0.1
2018-Jan-12 05:58N 33°36' W 118°09'0 0.0
2018-Jan-12 05:29N 33°36' W 118°09'911.9
2018-Jan-12 04:44N 33°43' W 118°15'7 2.8
2018-Jan-12 02:13N 33°44' W 118°07'512.6
2018-Jan-12 01:50N 33°40' W 118°04'4 3.0
2018-Jan-12 00:33N 33°42' W 118°07'113.9
2018-Jan-12 00:28N 33°41' W 118°07'  

Dump ship's entire track history